createdAt,value
2022-09-13T00:02:23.150Z,13.30
2022-09-13T00:04:51.189Z,13.30
2022-09-13T00:07:19.169Z,13.30
2022-09-13T00:09:47.176Z,13.30
2022-09-13T00:12:16.544Z,13.30
2022-09-13T00:14:44.591Z,13.40
2022-09-13T00:17:12.589Z,13.40
2022-09-13T00:19:40.603Z,13.40
2022-09-13T00:22:08.589Z,13.30
2022-09-13T00:24:37.440Z,13.30
2022-09-13T00:27:05.679Z,13.30
2022-09-13T00:29:35.293Z,13.30
2022-09-13T00:32:03.699Z,13.30
2022-09-13T00:34:31.902Z,13.20
2022-09-13T00:36:59.891Z,13.20
2022-09-13T00:39:27.980Z,13.20
2022-09-13T00:41:55.996Z,13.20
2022-09-13T00:44:50.921Z,13.10
2022-09-13T00:47:20.873Z,13.10
2022-09-13T00:49:48.901Z,13.00
2022-09-13T00:52:18.807Z,13.10
2022-09-13T00:54:49.463Z,13.00
2022-09-13T00:57:17.680Z,13.00
2022-09-13T00:59:47.654Z,13.00
2022-09-13T01:02:17.118Z,12.90
2022-09-13T01:04:45.269Z,12.90
2022-09-13T01:07:14.239Z,12.90
2022-09-13T01:09:44.253Z,12.80
2022-09-13T01:12:18.757Z,12.80
2022-09-13T01:14:46.891Z,12.80
2022-09-13T01:17:16.202Z,12.70
2022-09-13T01:19:44.200Z,12.70
2022-09-13T01:22:35.947Z,12.70
2022-09-13T01:25:42.258Z,12.70
2022-09-13T01:28:39.122Z,12.70
2022-09-13T01:31:09.070Z,12.70
2022-09-13T01:33:47.813Z,12.70
2022-09-13T01:36:44.006Z,12.70
2022-09-13T01:39:13.938Z,12.70
2022-09-13T01:41:51.309Z,12.70
2022-09-13T01:44:25.870Z,12.70
2022-09-13T01:46:58.123Z,12.70
2022-09-13T01:49:28.702Z,12.70
2022-09-13T01:51:59.899Z,12.70
2022-09-13T01:54:31.044Z,12.60
2022-09-13T01:57:01.479Z,12.60
2022-09-13T01:59:33.506Z,12.60
2022-09-13T02:02:05.254Z,12.60
2022-09-13T02:04:38.182Z,12.60
2022-09-13T02:07:08.678Z,12.50
2022-09-13T02:09:37.601Z,12.60
2022-09-13T02:12:07.928Z,12.60
2022-09-13T02:14:37.192Z,12.60
2022-09-13T02:17:08.377Z,12.50
2022-09-13T02:19:37.722Z,12.60
2022-09-13T02:22:07.372Z,12.50
2022-09-13T02:24:36.138Z,12.50
2022-09-13T02:27:06.470Z,12.60
2022-09-13T02:29:34.484Z,12.60
2022-09-13T02:32:07.320Z,12.60
2022-09-13T02:34:37.698Z,12.60
2022-09-13T02:37:05.732Z,12.60
2022-09-13T02:39:33.738Z,12.70
2022-09-13T02:42:09.256Z,12.70
2022-09-13T02:44:41.412Z,12.70
2022-09-13T02:47:22.756Z,12.80
2022-09-13T02:49:55.746Z,12.80
2022-09-13T02:52:27.743Z,12.80
2022-09-13T02:54:58.403Z,12.80
2022-09-13T02:57:32.320Z,12.90
2022-09-13T03:00:00.537Z,12.90
2022-09-13T03:02:32.553Z,12.90
2022-09-13T03:05:00.706Z,12.90
2022-09-13T03:07:28.692Z,12.90
2022-09-13T03:09:59.333Z,12.90
2022-09-13T03:12:52.582Z,12.90
2022-09-13T03:15:25.839Z,13.00
2022-09-13T03:17:58.328Z,13.00
2022-09-13T03:20:30.345Z,13.00
2022-09-13T03:23:31.699Z,13.00
2022-09-13T03:26:14.801Z,13.10
2022-09-13T03:28:45.954Z,13.10
2022-09-13T03:31:23.208Z,13.10
2022-09-13T03:33:56.040Z,13.10
2022-09-13T03:36:26.373Z,13.10
2022-09-13T03:38:57.235Z,13.20
2022-09-13T03:41:27.264Z,13.20
2022-09-13T03:43:56.596Z,13.20
2022-09-13T03:46:26.250Z,13.20
2022-09-13T03:48:55.807Z,13.20
2022-09-13T03:51:23.858Z,13.30
2022-09-13T03:53:54.067Z,13.20
2022-09-13T03:56:22.122Z,13.30
2022-09-13T03:58:50.254Z,13.30
2022-09-13T04:01:19.659Z,13.40
2022-09-13T04:03:47.716Z,13.30
2022-09-13T04:06:17.063Z,13.30
2022-09-13T04:08:45.462Z,13.40
2022-09-13T04:11:13.475Z,13.40
2022-09-13T04:13:42.122Z,13.40
2022-09-13T04:16:10.329Z,13.40
2022-09-13T04:18:38.345Z,13.40
2022-09-13T04:21:07.354Z,13.40
2022-09-13T04:23:36.719Z,13.40
2022-09-13T04:26:05.221Z,13.50
2022-09-13T04:28:33.199Z,13.50
2022-09-13T04:31:01.210Z,13.50
2022-09-13T04:33:29.197Z,13.50
2022-09-13T04:35:59.530Z,13.50
2022-09-13T04:38:27.644Z,13.50
2022-09-13T04:40:57.203Z,13.60
2022-09-13T04:43:25.331Z,13.60
2022-09-13T04:45:53.360Z,13.60
2022-09-13T04:48:21.339Z,13.60
2022-09-13T04:50:49.343Z,13.70
2022-09-13T04:53:18.355Z,13.70
2022-09-13T04:55:46.355Z,13.60
2022-09-13T04:58:15.670Z,13.70
2022-09-13T05:00:43.697Z,13.70
2022-09-13T05:03:11.684Z,13.70
2022-09-13T05:05:39.677Z,13.80
2022-09-13T05:08:07.643Z,13.80
2022-09-13T05:10:35.674Z,13.80
2022-09-13T05:13:03.950Z,13.80
2022-09-13T05:15:33.308Z,13.90
2022-09-13T05:18:01.277Z,13.90
2022-09-13T05:20:29.271Z,13.90
2022-09-13T05:22:57.322Z,13.90
2022-09-13T05:25:26.235Z,13.90
2022-09-13T05:27:54.257Z,13.90
2022-09-13T05:30:22.264Z,13.90
2022-09-13T05:32:51.586Z,13.90
2022-09-13T05:35:19.587Z,13.90
2022-09-13T05:37:47.559Z,13.90
2022-09-13T05:40:15.702Z,14.00
2022-09-13T05:42:43.736Z,14.00
2022-09-13T05:45:12.088Z,14.10
2022-09-13T05:47:40.056Z,14.00
2022-09-13T05:50:19.148Z,14.10
2022-09-13T05:52:55.467Z,14.20
2022-09-13T05:55:23.706Z,14.20
2022-09-13T05:57:51.679Z,14.20
2022-09-13T06:00:19.821Z,14.20
2022-09-13T06:02:47.919Z,14.20
2022-09-13T06:05:17.468Z,14.20
2022-09-13T06:07:45.455Z,14.20
2022-09-13T06:10:13.527Z,14.30
2022-09-13T06:12:41.512Z,14.30
2022-09-13T06:15:11.596Z,14.30
2022-09-13T06:17:39.771Z,14.30
2022-09-13T06:20:09.235Z,14.40
2022-09-13T06:22:38.816Z,14.40
2022-09-13T06:25:07.582Z,14.50
2022-09-13T06:27:35.575Z,14.60
2022-09-13T06:30:03.629Z,14.60
2022-09-13T06:32:31.607Z,14.70
2022-09-13T06:35:00.349Z,14.80
2022-09-13T06:37:28.336Z,14.80
2022-09-13T06:39:57.823Z,14.90
2022-09-13T06:42:25.919Z,15.10
2022-09-13T06:44:53.928Z,15.10
2022-09-13T06:47:21.907Z,15.20
2022-09-13T06:49:49.906Z,15.20
2022-09-13T06:52:17.881Z,15.30
2022-09-13T06:54:45.964Z,15.40
2022-09-13T06:57:15.292Z,15.30
2022-09-13T06:59:43.300Z,15.40
2022-09-13T07:02:11.365Z,15.40
2022-09-13T07:04:39.380Z,15.50
2022-09-13T07:07:07.402Z,15.60
2022-09-13T07:09:35.417Z,15.60
2022-09-13T07:12:03.648Z,15.70
2022-09-13T07:14:33.193Z,15.80
2022-09-13T07:17:01.195Z,15.80
2022-09-13T07:19:29.478Z,15.90
2022-09-13T07:21:57.817Z,16.00
2022-09-13T07:24:25.922Z,16.00
2022-09-13T07:26:53.995Z,16.00
2022-09-13T07:29:23.963Z,16.00
2022-09-13T07:31:54.264Z,16.10
2022-09-13T07:34:23.193Z,16.20
2022-09-13T07:36:51.274Z,16.30
2022-09-13T07:39:22.619Z,16.30
2022-09-13T07:41:51.242Z,16.40
2022-09-13T07:44:19.233Z,16.40
2022-09-13T07:46:47.212Z,16.50
2022-09-13T07:49:19.163Z,16.90
2022-09-13T07:51:47.223Z,17.40
2022-09-13T07:54:16.630Z,17.50
2022-09-13T07:56:44.777Z,17.40
2022-09-13T07:59:13.927Z,17.50
2022-09-13T08:01:42.551Z,17.60
2022-09-13T08:04:11.315Z,17.50
2022-09-13T08:06:41.210Z,17.60
2022-09-13T08:09:09.759Z,17.50
2022-09-13T08:11:38.935Z,17.50
2022-09-13T08:14:07.398Z,17.40
2022-09-13T08:16:35.644Z,17.20
2022-09-13T08:19:05.180Z,17.10
2022-09-13T08:21:34.058Z,17.10
2022-09-13T08:24:03.882Z,16.90
2022-09-13T08:26:32.458Z,17.00
2022-09-13T08:29:01.413Z,17.10
2022-09-13T08:31:29.517Z,17.00
2022-09-13T08:33:57.844Z,17.20
2022-09-13T08:36:26.137Z,17.20
2022-09-13T08:38:55.842Z,17.30
2022-09-13T08:41:47.941Z,17.40
2022-09-13T08:44:18.405Z,17.40
2022-09-13T08:46:46.917Z,17.40
2022-09-13T08:49:18.609Z,17.20
2022-09-13T08:51:48.324Z,17.30
2022-09-13T08:54:17.072Z,17.30
2022-09-13T08:56:52.820Z,17.20
2022-09-13T08:59:28.451Z,17.10
2022-09-13T09:02:00.895Z,17.10
2022-09-13T09:04:37.102Z,17.10
2022-09-13T09:07:06.742Z,17.30
2022-09-13T09:09:37.303Z,17.40
2022-09-13T09:12:12.177Z,17.40
2022-09-13T09:14:42.187Z,17.50
2022-09-13T09:17:13.847Z,17.60
2022-09-13T09:19:42.802Z,17.70
2022-09-13T09:22:14.698Z,17.60
2022-09-13T09:24:42.704Z,17.60
2022-09-13T09:27:14.916Z,17.70
2022-09-13T09:29:44.211Z,17.70
2022-09-13T09:32:20.558Z,17.90
2022-09-13T09:34:54.011Z,18.10
2022-09-13T09:37:22.469Z,18.20
2022-09-13T09:39:51.177Z,18.20
2022-09-13T09:42:22.309Z,18.40
2022-09-13T09:44:51.404Z,18.20
2022-09-13T09:47:20.373Z,18.30
2022-09-13T09:50:12.046Z,18.20
2022-09-13T09:52:42.962Z,18.20
2022-09-13T09:55:15.655Z,18.40
2022-09-13T09:57:55.776Z,18.40
2022-09-13T10:00:24.791Z,18.40
2022-09-13T10:02:55.016Z,18.50
2022-09-13T10:05:24.747Z,18.80
2022-09-13T10:07:56.805Z,18.80
2022-09-13T10:10:27.592Z,18.80
2022-09-13T10:12:57.456Z,18.70
2022-09-13T10:15:27.157Z,18.80
2022-09-13T10:18:39.985Z,18.70
2022-09-13T10:21:05.624Z,19.00
2022-09-13T10:23:34.462Z,19.00
2022-09-13T10:26:08.359Z,19.10
2022-09-13T10:28:45.931Z,19.00
2022-09-13T10:31:17.225Z,18.90
2022-09-13T10:33:47.739Z,18.80
2022-09-13T10:36:29.645Z,18.80
2022-09-13T10:39:05.918Z,18.80
2022-09-13T10:41:35.179Z,19.10
2022-09-13T10:44:09.601Z,18.90
2022-09-13T10:46:38.832Z,19.10
2022-09-13T10:49:06.835Z,19.00
2022-09-13T10:51:37.141Z,19.20
2022-09-13T10:54:19.219Z,19.10
2022-09-13T10:56:47.330Z,19.30
2022-09-13T10:59:19.868Z,19.10
2022-09-13T11:01:51.718Z,19.20
2022-09-13T11:04:45.558Z,19.30
2022-09-13T11:07:35.048Z,19.20
2022-09-13T11:10:04.362Z,19.30
2022-09-13T11:12:35.430Z,19.10
2022-09-13T11:15:09.874Z,19.20
2022-09-13T11:17:50.366Z,19.10
2022-09-13T11:20:22.891Z,19.10
2022-09-13T11:23:02.463Z,19.10
2022-09-13T11:25:35.906Z,19.10
2022-09-13T11:28:08.646Z,19.20
2022-09-13T11:30:39.771Z,19.30
2022-09-13T11:33:31.659Z,19.40
2022-09-13T11:36:12.012Z,19.50
2022-09-13T11:38:46.467Z,19.80
2022-09-13T11:41:20.167Z,19.70
2022-09-13T11:43:57.887Z,19.60
2022-09-13T11:46:31.297Z,19.60
2022-09-13T11:49:18.422Z,19.80
2022-09-13T11:51:51.806Z,20.00
2022-09-13T11:54:26.352Z,20.40
2022-09-13T11:56:56.955Z,20.50
2022-09-13T11:59:31.020Z,20.70
2022-09-13T12:02:03.788Z,20.90
2022-09-13T12:04:34.100Z,20.80
2022-09-13T12:07:03.168Z,21.00
2022-09-13T12:09:33.533Z,21.00
2022-09-13T12:12:05.247Z,21.00
2022-09-13T12:14:39.133Z,20.80
2022-09-13T12:17:12.429Z,21.00
2022-09-13T12:19:43.423Z,21.50
2022-09-13T12:22:12.681Z,21.60
2022-09-13T12:24:43.232Z,21.90
2022-09-13T12:27:13.031Z,22.10
2022-09-13T12:29:44.781Z,22.00
2022-09-13T12:32:14.112Z,21.80
2022-09-13T12:34:43.662Z,21.90
2022-09-13T12:37:20.058Z,22.20
2022-09-13T12:40:20.969Z,22.40
2022-09-13T12:43:16.474Z,22.50
2022-09-13T12:46:01.733Z,22.90
2022-09-13T12:49:05.294Z,22.80
2022-09-13T12:51:43.286Z,22.90
2022-09-13T12:54:23.755Z,23.00
2022-09-13T12:57:17.625Z,22.80
2022-09-13T12:59:57.283Z,23.00
2022-09-13T13:02:28.372Z,23.20
2022-09-13T13:04:58.538Z,23.30
2022-09-13T13:07:27.908Z,23.20
2022-09-13T13:09:57.054Z,22.80
2022-09-13T13:12:30.540Z,23.10
2022-09-13T13:14:58.543Z,22.70
2022-09-13T13:17:46.357Z,22.60
2022-09-13T13:20:49.482Z,22.60
2022-09-13T13:23:27.267Z,23.00
2022-09-13T13:26:11.994Z,22.40
2022-09-13T13:28:53.915Z,22.30
2022-09-13T13:31:35.973Z,22.50
2022-09-13T13:34:05.416Z,22.60
2022-09-13T13:36:43.551Z,22.60
2022-09-13T13:39:13.776Z,22.70
2022-09-13T13:41:54.137Z,22.80
2022-09-13T13:45:11.099Z,22.80
2022-09-13T13:47:58.238Z,22.80
2022-09-13T13:50:26.415Z,22.90
2022-09-13T13:52:56.910Z,22.90
2022-09-13T13:55:47.945Z,23.10
2022-09-13T13:58:35.034Z,22.80
2022-09-13T14:01:03.097Z,22.80
2022-09-13T14:03:49.344Z,22.60
2022-09-13T14:06:18.371Z,22.80
2022-09-13T14:08:52.647Z,22.80
2022-09-13T14:11:29.892Z,22.50
2022-09-13T14:14:07.669Z,22.50
2022-09-13T14:16:52.026Z,22.60
2022-09-13T14:19:24.959Z,22.80
2022-09-13T14:22:16.221Z,22.60
2022-09-13T14:24:46.379Z,22.60
2022-09-13T14:27:20.962Z,22.50
2022-09-13T14:29:50.000Z,22.70
2022-09-13T14:32:20.990Z,22.60
2022-09-13T14:34:54.774Z,22.50
2022-09-13T14:37:27.231Z,22.70
2022-09-13T14:39:56.372Z,22.70
2022-09-13T14:42:25.791Z,22.50
2022-09-13T14:44:54.054Z,22.40
2022-09-13T14:47:26.351Z,22.20
2022-09-13T14:49:56.232Z,22.10
2022-09-13T14:52:26.951Z,22.20
2022-09-13T14:54:57.286Z,22.10
2022-09-13T14:57:28.814Z,22.00
2022-09-13T14:59:57.717Z,22.10
2022-09-13T15:02:28.266Z,22.10
2022-09-13T15:04:57.358Z,22.20
2022-09-13T15:07:29.771Z,22.10
2022-09-13T15:09:59.690Z,21.90
2022-09-13T15:12:30.058Z,21.80
2022-09-13T15:15:21.275Z,21.50
2022-09-13T15:17:54.042Z,21.60
2022-09-13T15:20:22.551Z,21.50
2022-09-13T15:22:53.678Z,21.50
2022-09-13T15:25:24.382Z,21.60
2022-09-13T15:27:53.819Z,21.50
2022-09-13T15:30:27.599Z,21.40
2022-09-13T15:33:06.623Z,21.20
2022-09-13T15:35:37.694Z,21.10
2022-09-13T15:38:17.436Z,21.20
2022-09-13T15:40:46.178Z,21.20
2022-09-13T15:43:15.612Z,21.20
2022-09-13T15:45:43.611Z,21.10
2022-09-13T15:48:17.538Z,21.10
2022-09-13T15:50:45.513Z,21.10
2022-09-13T15:53:13.839Z,21.10
2022-09-13T15:55:41.816Z,21.00
2022-09-13T15:58:10.531Z,20.90
2022-09-13T16:00:39.896Z,20.90
2022-09-13T16:03:09.528Z,20.90
2022-09-13T16:05:37.647Z,21.00
2022-09-13T16:08:06.009Z,21.00
2022-09-13T16:10:34.222Z,20.90
2022-09-13T16:13:02.396Z,20.90
2022-09-13T16:15:30.727Z,21.00
2022-09-13T16:18:00.357Z,21.00
2022-09-13T16:20:28.644Z,21.00
2022-09-13T16:22:56.624Z,20.90
2022-09-13T16:25:24.622Z,20.90
2022-09-13T16:27:55.154Z,20.80
2022-09-13T16:30:23.564Z,20.70
2022-09-13T16:32:51.570Z,20.70
2022-09-13T16:35:20.987Z,20.70
2022-09-13T16:37:51.504Z,20.60
2022-09-13T16:40:19.861Z,20.50
2022-09-13T16:42:47.939Z,20.50
2022-09-13T16:45:15.981Z,20.40
2022-09-13T16:47:43.975Z,20.30
2022-09-13T16:50:12.041Z,20.20
2022-09-13T16:52:41.374Z,20.20
2022-09-13T16:55:09.982Z,20.00
2022-09-13T16:57:38.431Z,19.90
2022-09-13T17:00:10.089Z,19.80
2022-09-13T17:02:38.146Z,19.70
2022-09-13T17:05:08.482Z,19.70
2022-09-13T17:07:37.025Z,19.60
2022-09-13T17:10:07.706Z,19.50
2022-09-13T17:12:35.804Z,19.40
2022-09-13T17:15:03.957Z,19.50
2022-09-13T17:17:36.079Z,19.40
2022-09-13T17:20:06.787Z,19.30
2022-09-13T17:22:35.085Z,19.20
2022-09-13T17:25:03.150Z,19.20
2022-09-13T17:27:32.486Z,19.10
2022-09-13T17:30:02.384Z,19.00
2022-09-13T17:32:30.382Z,18.90
2022-09-13T17:34:58.375Z,18.90
2022-09-13T17:37:26.539Z,18.80
2022-09-13T17:39:54.597Z,18.80
2022-09-13T17:42:23.491Z,18.70
2022-09-13T17:44:53.072Z,18.60
2022-09-13T17:47:21.386Z,18.50
2022-09-13T17:49:49.407Z,18.40
2022-09-13T17:52:17.390Z,18.30
2022-09-13T17:54:46.551Z,18.30
2022-09-13T17:57:15.672Z,18.20
2022-09-13T17:59:43.678Z,18.00
2022-09-13T18:02:13.086Z,17.90
2022-09-13T18:04:41.355Z,17.90
2022-09-13T18:07:09.402Z,17.80
2022-09-13T18:09:38.272Z,17.80
2022-09-13T18:12:06.406Z,17.70
2022-09-13T18:14:34.401Z,17.60
2022-09-13T18:17:02.414Z,17.50
2022-09-13T18:19:45.787Z,17.50
2022-09-13T18:22:14.626Z,17.40
2022-09-13T18:24:42.625Z,17.30
2022-09-13T18:27:10.638Z,17.30
2022-09-13T18:29:38.622Z,17.20
2022-09-13T18:32:07.023Z,17.20
2022-09-13T18:34:36.373Z,17.10
2022-09-13T18:37:04.387Z,17.00
2022-09-13T18:39:32.377Z,16.90
2022-09-13T18:42:01.130Z,16.80
2022-09-13T18:44:30.391Z,16.80
2022-09-13T18:46:58.409Z,16.60
2022-09-13T18:49:26.450Z,16.60
2022-09-13T18:51:55.816Z,16.60
2022-09-13T18:54:23.803Z,16.50
2022-09-13T18:56:51.814Z,16.40
2022-09-13T18:59:19.826Z,16.30
2022-09-13T19:01:48.955Z,16.30
2022-09-13T19:04:18.002Z,16.30
2022-09-13T19:06:46.946Z,16.20
2022-09-13T19:09:16.320Z,16.10
2022-09-13T19:11:47.641Z,16.10
2022-09-13T19:14:16.947Z,15.90
2022-09-13T19:16:45.016Z,15.90
2022-09-13T19:19:13.006Z,15.90
2022-09-13T19:21:41.211Z,15.80
2022-09-13T19:24:16.118Z,15.80
2022-09-13T19:26:46.947Z,15.70
2022-09-13T19:29:15.747Z,15.70
2022-09-13T19:31:44.692Z,15.60
2022-09-13T19:34:14.801Z,15.60
2022-09-13T19:36:44.294Z,15.50
2022-09-13T19:39:12.459Z,15.50
2022-09-13T19:41:40.635Z,15.50
2022-09-13T19:44:10.029Z,15.50
2022-09-13T19:46:38.943Z,15.40
2022-09-13T19:49:08.229Z,15.40
2022-09-13T19:51:37.600Z,15.30
2022-09-13T19:54:06.152Z,15.20
2022-09-13T19:56:35.363Z,15.20
2022-09-13T19:59:03.486Z,15.20
2022-09-13T20:01:33.994Z,15.20
2022-09-13T20:04:03.259Z,15.10
2022-09-13T20:06:35.495Z,15.10
2022-09-13T20:09:04.156Z,15.10
2022-09-13T20:11:32.211Z,15.00
2022-09-13T20:14:00.398Z,15.00
2022-09-13T20:16:29.904Z,15.00
2022-09-13T20:18:59.328Z,14.90
2022-09-13T20:21:27.839Z,14.80
2022-09-13T20:23:57.579Z,14.80
2022-09-13T20:26:26.045Z,14.70
2022-09-13T20:28:55.718Z,14.70
2022-09-13T20:31:23.797Z,14.70
2022-09-13T20:33:55.426Z,14.70
2022-09-13T20:36:24.944Z,14.70
2022-09-13T20:38:53.535Z,14.70
2022-09-13T20:41:21.955Z,14.60
2022-09-13T20:43:49.966Z,14.70
2022-09-13T20:46:18.657Z,14.70
2022-09-13T20:48:46.751Z,14.70
2022-09-13T20:51:15.437Z,14.70
2022-09-13T20:53:44.799Z,14.70
2022-09-13T20:56:13.763Z,14.60
2022-09-13T20:58:42.638Z,14.70
2022-09-13T21:01:13.723Z,14.70
2022-09-13T21:03:43.560Z,14.60
2022-09-13T21:06:11.657Z,14.60
2022-09-13T21:08:41.421Z,14.60
2022-09-13T21:11:12.718Z,14.60
2022-09-13T21:13:43.387Z,14.50
2022-09-13T21:16:12.059Z,14.50
2022-09-13T21:18:40.178Z,14.40
2022-09-13T21:21:08.546Z,14.40
2022-09-13T21:23:40.333Z,14.40
2022-09-13T21:26:11.234Z,14.40
2022-09-13T21:28:39.730Z,14.30
2022-09-13T21:31:09.180Z,14.40
2022-09-13T21:33:37.219Z,14.40
2022-09-13T21:36:05.951Z,14.30
2022-09-13T21:38:35.047Z,14.20
2022-09-13T21:41:04.050Z,14.20
2022-09-13T21:43:34.055Z,14.20
2022-09-13T21:46:03.366Z,14.20
2022-09-13T21:48:32.991Z,14.10
2022-09-13T21:51:05.591Z,14.10
2022-09-13T21:53:35.629Z,14.10
2022-09-13T21:56:07.362Z,14.10
2022-09-13T21:58:37.223Z,14.00
2022-09-13T22:01:06.292Z,14.00
2022-09-13T22:03:36.010Z,13.90
2022-09-13T22:06:04.321Z,13.90
2022-09-13T22:08:33.059Z,13.90
2022-09-13T22:11:05.305Z,13.90
2022-09-13T22:13:34.519Z,13.80
2022-09-13T22:16:08.742Z,13.80
2022-09-13T22:18:37.131Z,13.80
2022-09-13T22:21:06.399Z,13.80
2022-09-13T22:23:34.815Z,13.70
2022-09-13T22:26:05.781Z,13.70
2022-09-13T22:28:33.991Z,13.70
2022-09-13T22:31:07.752Z,13.60
2022-09-13T22:33:35.997Z,13.60
2022-09-13T22:36:07.287Z,13.60
2022-09-13T22:38:35.532Z,13.60
2022-09-13T22:41:06.916Z,13.50
2022-09-13T22:43:35.028Z,13.50
2022-09-13T22:46:03.734Z,13.50
2022-09-13T22:48:34.149Z,13.50
2022-09-13T22:51:02.195Z,13.50
2022-09-13T22:53:30.207Z,13.40
2022-09-13T22:56:02.922Z,13.40
2022-09-13T22:58:30.960Z,13.40
2022-09-13T23:01:03.395Z,13.40
2022-09-13T23:03:32.877Z,13.40
2022-09-13T23:06:00.955Z,13.40
2022-09-13T23:08:29.090Z,13.40
2022-09-13T23:10:57.142Z,13.40
2022-09-13T23:13:25.227Z,13.40
2022-09-13T23:15:53.206Z,13.40
2022-09-13T23:18:21.206Z,13.40
2022-09-13T23:20:58.020Z,13.40
2022-09-13T23:23:26.059Z,13.30
2022-09-13T23:25:54.038Z,13.30
2022-09-13T23:28:22.343Z,13.30
2022-09-13T23:30:50.334Z,13.30
2022-09-13T23:33:18.363Z,13.20
2022-09-13T23:35:46.599Z,13.10
2022-09-13T23:38:16.002Z,13.10
2022-09-13T23:40:43.982Z,13.00
2022-09-13T23:43:11.967Z,13.00
2022-09-13T23:45:40.043Z,13.00
2022-09-13T23:48:08.066Z,13.00
2022-09-13T23:50:36.084Z,13.00
2022-09-13T23:53:04.076Z,12.90
2022-09-13T23:55:33.448Z,12.90
2022-09-13T23:58:01.433Z,12.90
